Rzeszow, Poland
Current Conditions -  °F | °C
As of 4:00 PM on Monday 24 Nov 2014 (Local Time) from EPRZ Reporting Station
Clear Clear  
Wind Chill: 27°   Ceiling: Unl
Heat Index: 36°   Visibility: 6mi
Dew Point: 32°   Wind: 14mph
Humidity: 87%   Direction: 110°ESE
Pressure: 30.33"   Gusts: NA
Location:  50.05°N, 22°E
Report Text: EPRZ 241400Z 11012KT CAVOK 02/M00 Q1027
Loading
Personal Weather Stations






























Interactive Weather Map New forecast layout! Learn more

10-Day Weather Forecast

Advertisements
Track Severe Weather on mobile